createdAt,value
2023-03-23T15:57:53.656Z,39.30
2023-03-23T16:00:21.793Z,39.30
2023-03-23T16:02:51.173Z,39.80
2023-03-23T16:05:18.063Z,39.90
2023-03-23T16:07:44.831Z,39.70
2023-03-23T16:10:22.372Z,39.30
2023-03-23T16:12:49.068Z,39.90
2023-03-23T16:15:16.144Z,40.20
2023-03-23T16:17:43.115Z,40.50
2023-03-23T16:20:19.451Z,41.10
2023-03-23T16:22:46.643Z,41.70
2023-03-23T16:25:13.474Z,42.20
2023-03-23T16:27:40.646Z,42.70
2023-03-23T16:30:19.320Z,42.80
2023-03-23T16:32:47.030Z,43.00
2023-03-23T16:35:14.773Z,43.30
2023-03-23T16:37:48.967Z,43.50
2023-03-23T16:40:16.378Z,43.60
2023-03-23T16:42:43.296Z,43.50
2023-03-23T16:45:10.405Z,43.60
2023-03-23T16:47:37.312Z,43.70
2023-03-23T16:50:06.814Z,43.70
2023-03-23T16:52:34.136Z,43.80
2023-03-23T16:55:13.678Z,43.90
2023-03-23T16:57:42.062Z,44.00
2023-03-23T17:00:12.632Z,44.10
2023-03-23T17:02:42.000Z,44.10
2023-03-23T17:05:10.808Z,44.20
2023-03-23T17:07:41.357Z,44.30
2023-03-23T17:10:09.422Z,44.40
2023-03-23T17:12:36.161Z,44.70
2023-03-23T17:15:03.767Z,44.70
2023-03-23T17:17:30.577Z,44.70
2023-03-23T17:19:57.565Z,44.90
2023-03-23T17:22:24.427Z,45.00
2023-03-23T17:24:51.199Z,45.70
2023-03-23T17:27:19.994Z,45.20
2023-03-23T17:29:46.746Z,45.40
2023-03-23T17:32:13.800Z,45.50
2023-03-23T17:34:40.594Z,45.60
2023-03-23T17:37:07.460Z,45.60
2023-03-23T17:39:43.275Z,45.70
2023-03-23T17:42:10.453Z,45.70
2023-03-23T17:44:37.238Z,45.80
2023-03-23T17:47:04.145Z,45.90
2023-03-23T17:49:31.223Z,46.00
2023-03-23T17:51:58.626Z,46.00
2023-03-23T17:54:25.974Z,45.90
2023-03-23T17:56:53.187Z,45.70
2023-03-23T17:59:20.095Z,45.80
2023-03-23T18:01:49.009Z,46.00
2023-03-23T18:04:16.230Z,46.10
2023-03-23T18:06:43.057Z,46.00
2023-03-23T18:09:09.913Z,46.20
2023-03-23T18:11:36.776Z,46.30
2023-03-23T18:14:03.598Z,46.20
2023-03-23T18:16:30.789Z,46.20
2023-03-23T18:18:57.673Z,46.20
2023-03-23T18:21:24.473Z,46.20
2023-03-23T18:23:59.365Z,46.20
2023-03-23T18:26:27.417Z,46.30
2023-03-23T18:28:54.320Z,46.50
2023-03-23T18:31:21.381Z,46.60
2023-03-23T18:33:49.553Z,46.70
2023-03-23T18:36:17.978Z,46.80
2023-03-23T18:38:48.185Z,46.90
2023-03-23T18:41:15.184Z,46.90
2023-03-23T18:43:41.987Z,47.00
2023-03-23T18:46:08.789Z,47.00
2023-03-23T18:48:36.152Z,47.00
2023-03-23T18:51:03.046Z,47.00
2023-03-23T18:53:29.905Z,47.10
2023-03-23T18:56:13.430Z,47.20
2023-03-23T18:58:40.188Z,47.50
2023-03-23T19:01:08.474Z,47.30
2023-03-23T19:03:36.131Z,47.50
2023-03-23T19:06:04.464Z,47.50
2023-03-23T19:08:31.651Z,48.00
2023-03-23T19:11:00.983Z,47.50
2023-03-23T19:13:29.059Z,47.70
2023-03-23T19:15:55.975Z,47.60
2023-03-23T19:18:22.940Z,47.70
2023-03-23T19:21:13.525Z,47.90
2023-03-23T19:23:41.396Z,48.10
2023-03-23T19:26:08.134Z,48.40
2023-03-23T19:31:04.917Z,48.70
2023-03-23T19:33:31.732Z,48.90
2023-03-23T19:36:09.381Z,48.90
2023-03-23T19:38:39.639Z,48.90
2023-03-23T19:41:06.909Z,49.10
2023-03-23T19:43:34.099Z,49.20
2023-03-23T19:46:00.906Z,49.20
2023-03-23T19:48:28.716Z,49.20
2023-03-23T19:50:56.433Z,49.30
2023-03-23T19:53:23.539Z,49.30
2023-03-23T19:55:50.600Z,49.20
2023-03-23T19:58:17.741Z,49.30
2023-03-23T20:00:45.829Z,49.40
2023-03-23T20:03:13.043Z,49.50
2023-03-23T20:05:40.732Z,49.60
2023-03-23T20:08:09.144Z,49.70
2023-03-23T20:10:36.084Z,49.80
2023-03-23T20:13:03.426Z,50.10
2023-03-23T20:15:30.477Z,50.20
2023-03-23T20:17:58.305Z,50.40
2023-03-23T20:20:25.325Z,50.30
2023-03-23T20:22:53.931Z,50.50
2023-03-23T20:25:22.783Z,50.60
2023-03-23T20:27:49.682Z,50.60
2023-03-23T20:30:17.658Z,50.80
2023-03-23T20:32:46.366Z,50.90
2023-03-23T20:35:14.592Z,51.00
2023-03-23T20:37:41.502Z,51.20
2023-03-23T20:40:14.694Z,51.30
2023-03-23T20:42:43.892Z,51.40
2023-03-23T20:45:11.984Z,51.50
2023-03-23T20:47:38.999Z,51.60
2023-03-23T20:50:07.355Z,51.70
2023-03-23T20:52:34.179Z,51.80
2023-03-23T20:55:01.070Z,51.40
2023-03-23T20:57:28.882Z,51.20
2023-03-23T20:59:55.842Z,51.20
2023-03-23T21:02:24.973Z,51.30
2023-03-23T21:04:52.901Z,51.40
2023-03-23T21:07:23.042Z,51.50
2023-03-23T21:09:49.894Z,51.50
2023-03-23T21:12:16.615Z,51.50
2023-03-23T21:14:44.910Z,51.60
2023-03-23T21:17:11.771Z,51.60
2023-03-23T21:19:38.701Z,51.70
2023-03-23T21:22:05.457Z,51.80
2023-03-23T21:24:32.287Z,52.00
2023-03-23T21:27:00.301Z,52.10
2023-03-23T21:29:27.475Z,52.20
2023-03-23T21:32:05.247Z,52.30
2023-03-23T21:34:36.045Z,52.60
2023-03-23T21:37:02.722Z,52.70
2023-03-23T21:39:29.485Z,52.70
2023-03-23T21:41:56.284Z,52.60
2023-03-23T21:44:23.020Z,52.50
2023-03-23T21:46:52.185Z,52.60
2023-03-23T21:49:19.017Z,53.20
2023-03-23T21:51:45.838Z,52.70
2023-03-23T21:54:13.137Z,53.10
2023-03-23T21:56:40.193Z,53.30
2023-03-23T21:59:07.790Z,53.50
2023-03-23T22:01:36.763Z,53.50
2023-03-23T22:04:04.407Z,53.50
2023-03-23T22:06:31.494Z,53.40
2023-03-23T22:08:58.346Z,53.30
2023-03-23T22:11:26.901Z,53.40
2023-03-23T22:13:54.729Z,53.50
2023-03-23T22:16:21.909Z,53.40
2023-03-23T22:18:49.269Z,54.00
2023-03-23T22:21:16.721Z,53.30
2023-03-23T22:23:43.920Z,53.50
2023-03-23T22:26:11.105Z,53.60
2023-03-23T22:28:38.537Z,53.90
2023-03-23T22:31:12.077Z,54.10
2023-03-23T22:33:38.928Z,54.10
2023-03-23T22:36:06.695Z,54.10
2023-03-23T22:38:37.664Z,54.30
2023-03-23T22:41:07.078Z,54.20
2023-03-23T22:43:37.198Z,54.20
2023-03-23T22:46:04.765Z,54.30
2023-03-23T22:48:31.613Z,54.40
2023-03-23T22:50:58.607Z,54.50
2023-03-23T22:53:25.402Z,54.60
2023-03-23T22:55:53.863Z,54.60
2023-03-23T22:58:20.700Z,54.70
2023-03-23T23:00:49.591Z,54.60
2023-03-23T23:03:16.706Z,54.70
2023-03-23T23:05:44.700Z,54.70
2023-03-23T23:08:13.513Z,54.70
2023-03-23T23:10:42.112Z,54.90
2023-03-23T23:13:09.429Z,54.80
2023-03-23T23:15:36.870Z,54.80
2023-03-23T23:18:04.956Z,54.80
2023-03-23T23:20:33.274Z,54.90
2023-03-23T23:23:00.548Z,54.90
2023-03-23T23:25:28.532Z,54.90
2023-03-23T23:27:56.380Z,54.90
2023-03-23T23:30:23.184Z,55.00
2023-03-23T23:32:52.247Z,54.80
2023-03-23T23:35:21.990Z,54.80
2023-03-23T23:37:48.926Z,55.00
2023-03-23T23:40:16.094Z,55.10
2023-03-23T23:42:43.890Z,55.10
2023-03-23T23:45:10.824Z,55.20
2023-03-23T23:47:38.532Z,55.80
2023-03-23T23:50:07.269Z,55.20
2023-03-23T23:52:34.583Z,55.10
2023-03-23T23:55:01.376Z,55.00
2023-03-23T23:57:28.192Z,55.00
2023-03-23T23:59:54.910Z,55.00
